ADDS METAR Data INFO
IDs: Format: Raw Decoded Include TAF

Data at: 2027 UTC 16 Dec 2017

K79J 161956Z AUTO 13003KT 10SM CLR 16/M02 A3022 RMK AO2 SLP232 T01611022
K79J 161856Z AUTO 12004KT 10SM CLR 16/M02 A3024 RMK AO2 SLP238 T01561022
K79J 161756Z AUTO 13005KT 10SM CLR 14/M02 A3027 RMK AO2 SLP249 T01391022 10139 20011 58018
K79J 161656Z AUTO 08007KT 10SM CLR 12/M02 A3031 RMK AO2 SLP262 T01221022
K79J 161556Z AUTO 10006KT 10SM CLR 10/M03 A3032 RMK AO2 SLP267 T01001028
K79J 161456Z AUTO 09008KT 10SM CLR 07/M03 A3032 RMK AO2 SLP268 T00721028 51019
K79J 161356Z AUTO 08005KT 10SM CLR 04/M02 A3031 RMK AO2 SLP263 T00391022
K79J 161256Z AUTO 00000KT 10SM CLR 01/M03 A3030 RMK AO2 SLP259 T00111028
K79J 161156Z AUTO 02003KT 10SM CLR 01/M03 A3026 RMK AO2 SLP248 T00111028 10039 20011 53006
K79J 161056Z AUTO 00000KT 10SM CLR 01/M03 A3026 RMK AO2 SLP246 T00111028
K79J 160956Z AUTO 04003KT 10SM CLR 02/M03 A3024 RMK AO2 SLP241 T00171028
K79J 160856Z AUTO 00000KT 10SM CLR 02/M02 A3025 RMK AO2 SLP242 T00221022 50000
K79J 160756Z AUTO 36003KT 10SM CLR 03/M02 A3025 RMK AO2 SLP243 T00281022
K79J 160656Z AUTO 00000KT 10SM CLR 03/M02 A3025 RMK AO2 SLP244 T00281017
K79J 160556Z AUTO 35004KT 10SM CLR 04/M02 A3025 RMK AO2 SLP242 60000 T00391022 10078 20039 53002
K79J 160456Z AUTO 01003KT 10SM SCT120 06/M02 A3024 RMK AO2 SLP240 T00561017 401000050
K79J 160356Z AUTO 01004KT 10SM CLR 06/M01 A3024 RMK AO2 SLP240 T00561011
K79J 160256Z AUTO 35004KT 10SM CLR 06/M01 A3024 RMK AO2 RAB08E19 SLP240 P0000 60000 T00611011 51016
K79J 160156Z AUTO 32008KT 10SM CLR 07/M01 A3024 RMK AO2 PRESRR SLP239 T00721011
K79J 160056Z AUTO 33006KT 10SM BKN110 07/M01 A3022 RMK AO2 SLP231 T00721006
K79J 152356Z AUTO 33003KT 10SM FEW100 FEW120 08/00 A3019 RMK AO2 SLP223 T00780000 10100 20078 51019
K79J 152256Z AUTO 32006KT 10SM BKN100 08/M01 A3018 RMK AO2 SLP220 T00781011
K79J 152156Z AUTO 34004KT 10SM FEW120 08/M01 A3016 RMK AO2 SLP214 T00831011
K79J 152056Z AUTO 34008KT 10SM CLR 09/M02 A3014 RMK AO2 SLP205 T00891017 58008
K79J 151956Z AUTO 33008KT 10SM BKN110 09/M01 A3015 RMK AO2 SLP208 T00941011
K79J 151856Z AUTO 32010KT 10SM CLR 09/00 A3015 RMK AO2 SLP208 T00940000
K79J 151756Z AUTO 32009KT 10SM SCT110 09/01 A3016 RMK AO2 SLP212 T00940011 10100 20072 50007
K79J 151656Z AUTO 32006KT 10SM SCT110 09/02 A3018 RMK AO2 SLP218 T00890022
K79J 151556Z AUTO 32006KT 10SM SCT120 08/03 A3016 RMK AO2 SLP211 T00830028
K79J 151456Z AUTO 35009KT 10SM FEW120 08/03 A3014 RMK AO2 SLP205 T00780028 53035
K79J 151356Z AUTO 35007KT 10SM CLR 08/04 A3010 RMK AO2 SLP192 T00780039
K79J 151256Z AUTO 32004KT 10SM CLR 08/04 A3007 RMK AO2 SLP181 T00780044
K79J 151156Z AUTO 33003KT 10SM CLR 07/05 A3004 RMK AO2 SLP170 T00720050 10072 20050 51009
K79J 151056Z AUTO 00000KT 9SM CLR 06/04 A3003 RMK AO2 SLP168 T00610039
K79J 150956Z AUTO 00000KT 9SM CLR 06/04 A3003 RMK AO2 SLP169 T00610039
K79J 150856Z AUTO 00000KT 6SM BR CLR 06/03 A3001 RMK AO2 SLP160 T00560033 55002